Time;durP1;ratioP1;P1;durP2;ratioP2;P2;SDS_P1;SDS_P2;PMS_P1;PMS_P2;Temp;Humidity;BMP_temperature;BMP_pressure;BME280_temperature;BME280_humidity;BME280_pressure;Samples;Min_cycle;Max_cycle;Signal;HPM_P1;HPM_P2
2022/09/08 00:02:22;;;;;;;290.77;279.00;;;16.70;99.90;;;;;;5001941;28;20457;-84
2022/09/08 00:04:48;;;;;;;270.10;260.50;;;16.80;99.90;;;;;;5007228;28;20460;-83
2022/09/08 00:07:16;;;;;;;273.57;263.30;;;16.70;99.90;;;;;;5006850;28;20480;-84
2022/09/08 00:09:43;;;;;;;276.00;266.20;;;16.80;99.90;;;;;;5006357;28;20479;-83
2022/09/08 00:12:12;;;;;;;281.60;271.47;;;16.70;99.90;;;;;;4988174;28;20462;-83
2022/09/08 00:14:39;;;;;;;267.83;258.13;;;16.70;99.90;;;;;;4987738;28;20862;-84
2022/09/08 00:17:05;;;;;;;263.17;253.53;;;16.70;99.90;;;;;;5004345;28;20468;-84
2022/09/08 00:19:32;;;;;;;302.97;291.53;;;16.70;99.90;;;;;;5004038;28;20481;-84
2022/09/08 00:21:59;;;;;;;285.83;275.47;;;16.70;99.90;;;;;;4987397;28;20460;-84
2022/09/08 00:24:26;;;;;;;294.70;283.23;;;16.70;99.90;;;;;;4989506;28;20466;-84
2022/09/08 00:26:52;;;;;;;243.07;234.23;;;16.70;99.90;;;;;;5006278;28;20458;-83
2022/09/08 00:29:20;;;;;;;262.80;253.43;;;16.70;99.90;;;;;;5007037;28;20460;-84
2022/09/08 00:31:47;;;;;;;236.40;228.20;;;16.70;99.90;;;;;;5006768;28;21015;-84
2022/09/08 00:34:14;;;;;;;224.60;217.10;;;16.70;99.90;;;;;;4987241;28;20484;-84
2022/09/08 00:36:41;;;;;;;218.47;211.07;;;16.70;99.90;;;;;;4987277;28;20844;-84
2022/09/08 00:39:08;;;;;;;203.03;196.07;;;16.60;99.90;;;;;;4988239;28;20478;-84
2022/09/08 00:41:35;;;;;;;197.87;190.73;;;16.70;99.90;;;;;;4986795;28;20473;-84
2022/09/08 00:44:37;;;;;;;212.00;204.40;;;16.70;99.90;;;;;;5004633;28;20465;-84
2022/09/08 00:47:05;;;;;;;240.90;232.80;;;16.70;99.90;;;;;;5006347;28;20474;-84
2022/09/08 00:49:33;;;;;;;270.67;261.30;;;16.70;99.90;;;;;;4987911;28;20456;-85
2022/09/08 00:52:01;;;;;;;266.87;257.40;;;16.70;99.90;;;;;;4987937;28;20954;-84
2022/09/08 00:54:27;;;;;;;277.10;267.40;;;16.60;99.90;;;;;;5005846;28;20471;-84
2022/09/08 00:56:58;;;;;;;293.60;283.30;;;16.50;99.90;;;;;;5005980;28;20463;-84
2022/09/08 00:59:26;;;;;;;302.97;292.27;;;16.60;99.90;;;;;;5006531;28;20466;-84
2022/09/08 01:01:54;;;;;;;315.50;304.03;;;16.50;99.90;;;;;;5006523;28;20453;-84
2022/09/08 01:04:22;;;;;;;341.53;328.53;;;16.50;99.90;;;;;;5006526;28;20449;-84
2022/09/08 01:12:46;;;;;;;381.63;366.57;;;16.40;99.90;;;;;;5005534;28;20496;-84
2022/09/08 01:15:16;;;;;;;372.47;357.97;;;16.40;99.90;;;;;;4985975;28;20480;-84
2022/09/08 01:17:44;;;;;;;365.23;350.93;;;16.50;99.90;;;;;;4986814;28;20485;-84
2022/09/08 01:20:12;;;;;;;325.80;313.43;;;16.60;99.90;;;;;;5004114;28;20456;-84
2022/09/08 01:22:58;;;;;;;292.90;281.70;;;16.60;99.90;;;;;;5006809;28;20456;-84
2022/09/08 01:25:56;;;;;;;251.50;242.60;;;16.70;99.90;;;;;;5004884;28;20447;-84
2022/09/08 01:28:29;;;;;;;233.33;225.17;;;16.70;99.90;;;;;;5004414;28;20477;-84
2022/09/08 01:30:57;;;;;;;255.60;246.67;;;16.80;99.90;;;;;;5006500;28;20454;-84
2022/09/08 01:33:24;;;;;;;245.83;236.67;;;16.80;99.90;;;;;;5004493;28;20953;-84
2022/09/08 01:35:50;;;;;;;212.63;205.00;;;16.80;99.90;;;;;;4986668;28;20490;-84
2022/09/08 01:38:17;;;;;;;232.13;223.97;;;16.80;99.90;;;;;;4986698;28;20482;-84
2022/09/08 01:40:44;;;;;;;218.83;211.40;;;16.70;99.90;;;;;;5006658;28;20457;-84
2022/09/08 01:43:11;;;;;;;150.40;145.17;;;16.80;99.90;;;;;;5002082;28;20452;-84
2022/09/08 01:45:40;;;;;;;151.93;146.43;;;16.90;99.90;;;;;;4986360;28;20465;-84
2022/09/08 01:48:08;;;;;;;128.80;124.03;;;16.90;99.90;;;;;;4989492;28;20475;-83
2022/09/08 01:50:36;;;;;;;125.43;120.83;;;17.00;99.90;;;;;;5007096;28;20450;-84
2022/09/08 01:53:03;;;;;;;91.30;87.80;;;17.10;99.90;;;;;;5008764;28;20456;-84
2022/09/08 01:55:30;;;;;;;88.53;85.03;;;17.10;99.90;;;;;;4990171;28;20482;-84
2022/09/08 01:57:57;;;;;;;83.27;80.07;;;17.10;99.90;;;;;;4990444;28;20471;-84
2022/09/08 02:00:23;;;;;;;49.70;47.20;;;17.20;99.90;;;;;;5008142;28;20458;-84
2022/09/08 02:02:51;;;;;;;64.37;61.87;;;17.30;99.90;;;;;;5006271;28;20464;-84
2022/09/08 02:05:18;;;;;;;62.40;59.93;;;17.30;99.90;;;;;;4986674;28;20507;-84
2022/09/08 02:07:45;;;;;;;69.87;66.77;;;17.40;99.90;;;;;;4987206;28;20478;-84
2022/09/08 02:10:12;;;;;;;54.83;52.53;;;17.50;99.90;;;;;;5003665;28;20446;-83
2022/09/08 02:12:38;;;;;;;61.10;58.60;;;17.50;99.90;;;;;;5002470;28;20456;-83
2022/09/08 02:15:06;;;;;;;64.90;62.10;;;17.40;99.90;;;;;;4984616;28;20863;-82
2022/09/08 02:17:33;;;;;;;107.57;103.77;;;17.50;99.90;;;;;;4983133;28;20471;-83
2022/09/08 02:20:02;;;;;;;225.97;218.33;;;17.50;99.90;;;;;;5000281;28;20457;-82
2022/09/08 02:22:30;;;;;;;326.87;315.67;;;17.40;99.90;;;;;;5000483;28;20463;-83
2022/09/08 02:24:57;;;;;;;408.03;392.93;;;17.20;99.90;;;;;;4999356;28;20445;-84
2022/09/08 02:27:23;;;;;;;473.90;454.90;;;17.20;99.90;;;;;;4985643;28;20489;-84
2022/09/08 02:29:51;;;;;;;680.03;644.43;;;17.10;99.90;;;;;;4998037;28;20457;-83
2022/09/08 02:32:17;;;;;;;743.60;698.90;;;16.90;99.90;;;;;;5000997;28;20472;-84
2022/09/08 02:34:44;;;;;;;781.37;731.27;;;16.80;99.90;;;;;;5001048;28;20484;-84
2022/09/08 02:37:12;;;;;;;784.10;730.90;;;16.80;99.90;;;;;;4987846;28;20493;-85
2022/09/08 02:39:39;;;;;;;787.43;733.03;;;16.80;99.90;;;;;;4979835;28;20458;-84
2022/09/08 02:42:06;;;;;;;777.37;720.53;;;16.60;99.90;;;;;;4989375;28;20470;-84
2022/09/08 02:44:33;;;;;;;793.77;735.57;;;16.80;99.90;;;;;;4999865;28;20451;-84
2022/09/08 02:47:00;;;;;;;813.77;750.40;;;16.70;99.90;;;;;;4991922;28;20469;-84
2022/09/08 02:49:27;;;;;;;845.87;776.87;;;16.70;99.90;;;;;;4980757;28;20459;-83
2022/09/08 02:51:53;;;;;;;859.30;786.23;;;16.70;99.90;;;;;;4988346;28;20460;-84
2022/09/08 02:54:22;;;;;;;883.50;805.00;;;16.70;99.90;;;;;;4999894;28;20452;-84
2022/09/08 02:56:48;;;;;;;903.17;822.20;;;16.60;99.90;;;;;;4990229;28;20475;-84
2022/09/08 02:59:15;;;;;;;870.93;809.63;;;16.60;99.90;;;;;;4981091;28;20534;-83
2022/09/08 03:01:43;;;;;;;856.77;799.10;;;16.50;99.90;;;;;;4981235;28;20504;-84
2022/09/08 03:04:10;;;;;;;857.73;803.13;;;16.70;99.90;;;;;;4981489;28;20453;-82
2022/09/08 03:06:37;;;;;;;847.93;796.60;;;16.60;99.90;;;;;;4981955;28;20472;-85
2022/09/08 03:09:04;;;;;;;858.93;809.23;;;16.60;99.90;;;;;;4981191;28;20465;-85
2022/09/08 03:11:32;;;;;;;826.07;780.53;;;16.70;99.90;;;;;;4986889;28;20450;-83
2022/09/08 03:13:59;;;;;;;838.57;793.83;;;16.60;99.90;;;;;;5000637;28;20453;-84
2022/09/08 03:16:26;;;;;;;835.10;792.00;;;16.70;99.90;;;;;;5000487;28;20825;-85
2022/09/08 03:18:53;;;;;;;819.90;780.10;;;16.70;99.90;;;;;;5000480;28;20542;-85
2022/09/08 03:21:21;;;;;;;794.67;758.23;;;16.70;99.90;;;;;;4998360;28;20461;-85
2022/09/08 03:23:48;;;;;;;780.23;745.63;;;16.60;99.90;;;;;;4980640;28;20456;-84
2022/09/08 03:26:17;;;;;;;784.83;750.57;;;16.50;99.90;;;;;;4981839;28;20958;-85
2022/09/08 03:28:46;;;;;;;765.93;733.60;;;16.50;99.90;;;;;;4996733;28;20470;-85
2022/09/08 03:31:15;;;;;;;775.67;743.40;;;16.60;99.90;;;;;;4999571;28;20957;-85
2022/09/08 03:33:42;;;;;;;741.57;712.27;;;16.50;99.90;;;;;;5000098;28;20988;-85
2022/09/08 03:36:11;;;;;;;757.93;727.90;;;16.50;99.90;;;;;;4996919;28;20485;-85
2022/09/08 03:38:38;;;;;;;742.83;714.13;;;16.50;99.90;;;;;;4979304;28;21018;-85
2022/09/08 03:41:06;;;;;;;735.10;707.30;;;16.40;99.90;;;;;;4981011;28;20452;-85
2022/09/08 03:43:32;;;;;;;726.80;699.50;;;16.50;99.90;;;;;;4999902;28;21039;-84
2022/09/08 03:46:01;;;;;;;686.17;662.17;;;16.50;99.90;;;;;;4989466;28;20460;-84
2022/09/08 03:48:27;;;;;;;675.23;652.00;;;16.50;99.90;;;;;;4980879;28;20476;-85
2022/09/08 03:50:56;;;;;;;651.33;629.50;;;16.50;99.90;;;;;;4988705;28;20456;-84
2022/09/08 03:53:23;;;;;;;644.07;622.77;;;16.40;99.90;;;;;;4999421;28;20456;-84
2022/09/08 03:55:50;;;;;;;649.53;628.23;;;16.50;99.90;;;;;;4991940;28;20484;-84
2022/09/08 03:58:17;;;;;;;642.63;621.73;;;16.40;99.90;;;;;;4979159;28;20476;-85
2022/09/08 04:00:43;;;;;;;613.93;594.53;;;16.40;99.90;;;;;;4981681;28;20454;-85
2022/09/08 04:03:11;;;;;;;609.77;590.67;;;16.50;99.90;;;;;;4980189;28;20469;-85
2022/09/08 04:05:39;;;;;;;607.70;588.73;;;16.40;99.90;;;;;;4980688;28;20452;-85
2022/09/08 04:08:06;;;;;;;607.03;588.10;;;16.40;99.90;;;;;;4979870;28;20490;-85
2022/09/08 04:10:33;;;;;;;600.30;581.77;;;16.40;99.90;;;;;;4981260;28;20968;-85
2022/09/08 04:12:59;;;;;;;608.03;589.23;;;16.40;99.90;;;;;;4997899;28;20451;-84
2022/09/08 04:15:26;;;;;;;594.47;576.17;;;16.40;99.90;;;;;;4992166;28;20478;-85
2022/09/08 04:17:53;;;;;;;559.93;543.10;;;16.40;99.90;;;;;;4987324;28;20477;-86
2022/09/08 04:20:21;;;;;;;549.80;533.40;;;16.40;99.90;;;;;;4993112;28;20461;-85
2022/09/08 04:22:48;;;;;;;548.63;532.33;;;16.40;99.90;;;;;;4988788;28;20539;-84
2022/09/08 04:25:15;;;;;;;565.03;548.17;;;16.40;99.90;;;;;;4982812;28;20457;-85
2022/09/08 04:27:42;;;;;;;552.50;536.10;;;16.40;99.90;;;;;;4984994;28;20473;-84
2022/09/08 04:30:10;;;;;;;520.70;505.80;;;16.40;99.90;;;;;;5002372;28;20504;-84
2022/09/08 04:32:38;;;;;;;528.97;513.77;;;16.40;99.90;;;;;;5000061;28;20485;-83
2022/09/08 04:35:05;;;;;;;522.70;507.80;;;16.50;99.90;;;;;;4991563;28;20482;-86
2022/09/08 04:37:44;;;;;;;509.57;495.17;;;16.40;99.90;;;;;;4976475;28;20836;-87
2022/09/08 04:40:11;;;;;;;507.67;493.27;;;16.40;99.90;;;;;;4987590;28;20461;-84
2022/09/08 04:42:38;;;;;;;493.13;479.23;;;16.30;99.90;;;;;;4990172;28;20453;-85
2022/09/08 04:45:06;;;;;;;488.07;474.27;;;16.30;99.90;;;;;;4983121;28;20469;-86
2022/09/08 04:47:34;;;;;;;469.37;456.17;;;16.30;99.90;;;;;;4980675;28;20496;-85
2022/09/08 04:50:00;;;;;;;464.70;451.70;;;16.30;99.90;;;;;;4981063;28;20934;-85
2022/09/08 04:52:27;;;;;;;459.23;446.37;;;16.20;99.90;;;;;;4980208;28;20464;-85
2022/09/08 04:54:55;;;;;;;460.90;448.00;;;16.30;99.90;;;;;;4979610;28;20975;-84
2022/09/08 04:57:22;;;;;;;446.87;434.47;;;16.20;99.90;;;;;;4980318;28;20469;-85
2022/09/08 04:59:48;;;;;;;443.53;431.23;;;16.30;99.90;;;;;;4979793;28;20460;-85
2022/09/08 05:02:15;;;;;;;427.30;415.50;;;16.30;99.90;;;;;;4980943;28;20456;-85
2022/09/08 05:04:42;;;;;;;444.27;431.87;;;16.20;99.90;;;;;;4980265;28;20460;-84
2022/09/08 05:07:09;;;;;;;440.70;428.43;;;16.20;99.90;;;;;;4983308;28;20462;-81
2022/09/08 05:09:35;;;;;;;426.63;414.83;;;16.30;99.90;;;;;;4979532;28;20466;-85
2022/09/08 05:12:04;;;;;;;440.73;428.47;;;16.30;99.90;;;;;;4978823;28;20452;-85
2022/09/08 05:14:31;;;;;;;449.00;436.40;;;16.40;99.90;;;;;;5000537;28;20456;-84
2022/09/08 05:16:57;;;;;;;437.03;424.83;;;16.30;99.90;;;;;;4999649;28;20930;-84
2022/09/08 05:19:24;;;;;;;448.30;435.70;;;16.40;99.90;;;;;;4985615;28;20469;-85
2022/09/08 05:21:51;;;;;;;447.97;435.37;;;16.40;99.90;;;;;;4996965;28;20457;-84
2022/09/08 05:24:18;;;;;;;418.80;407.20;;;16.40;99.90;;;;;;4989031;28;20447;-84
2022/09/08 05:26:45;;;;;;;389.30;378.67;;;16.40;99.90;;;;;;4993399;28;20486;-84
2022/09/08 05:29:13;;;;;;;382.40;372.00;;;16.40;99.90;;;;;;4986527;28;20461;-86
2022/09/08 05:31:39;;;;;;;375.23;365.03;;;16.40;99.90;;;;;;4994642;28;20456;-84
2022/09/08 05:34:06;;;;;;;366.87;356.87;;;16.30;99.90;;;;;;4982901;28;20467;-83
2022/09/08 05:36:35;;;;;;;374.70;364.50;;;16.30;99.90;;;;;;4980502;28;20475;-84
2022/09/08 05:39:05;;;;;;;362.10;352.20;;;16.20;99.90;;;;;;4981644;28;20453;-85
2022/09/08 05:41:33;;;;;;;369.40;359.37;;;16.10;99.90;;;;;;4979782;28;20460;-85
2022/09/08 05:44:00;;;;;;;357.63;347.83;;;16.00;99.90;;;;;;4982631;28;20527;-84
2022/09/08 05:46:29;;;;;;;321.33;312.50;;;15.90;99.90;;;;;;5001296;28;20450;-83
2022/09/08 05:48:58;;;;;;;328.93;319.93;;;15.90;99.90;;;;;;4985061;28;20469;-84
2022/09/08 05:51:26;;;;;;;316.53;307.83;;;16.00;99.90;;;;;;5000437;28;20533;-86
2022/09/08 05:53:53;;;;;;;287.37;279.37;;;16.00;99.90;;;;;;4998325;28;20458;-84
2022/09/08 05:56:20;;;;;;;304.87;296.47;;;15.80;99.90;;;;;;4997702;28;20479;-85
2022/09/08 05:58:51;;;;;;;310.50;302.00;;;15.80;99.90;;;;;;4996206;28;20476;-85
2022/09/08 06:01:18;;;;;;;311.60;303.00;;;15.90;99.90;;;;;;4985856;28;20460;-85
2022/09/08 06:03:47;;;;;;;311.83;303.23;;;15.90;99.90;;;;;;4992265;28;20455;-84
2022/09/08 06:06:16;;;;;;;310.53;302.00;;;15.90;99.90;;;;;;5014677;28;20528;-85
2022/09/08 06:08:43;;;;;;;306.67;298.20;;;15.90;99.90;;;;;;5012648;28;20479;-82
2022/09/08 06:11:10;;;;;;;289.70;281.70;;;15.90;99.90;;;;;;5004879;28;20456;-85
2022/09/08 06:13:38;;;;;;;292.27;284.17;;;15.90;99.90;;;;;;4995869;28;20641;-86
2022/09/08 06:16:06;;;;;;;295.37;287.23;;;16.00;99.90;;;;;;4995021;28;20492;-85
2022/09/08 06:18:34;;;;;;;307.83;299.33;;;15.80;99.90;;;;;;5011054;28;20540;-85
2022/09/08 06:21:08;;;;;;;290.70;282.60;;;15.80;99.90;;;;;;5004428;28;20464;-86
2022/09/08 06:23:35;;;;;;;276.30;268.60;;;15.80;99.90;;;;;;5009267;28;20466;-86
2022/09/08 06:26:48;;;;;;;282.67;274.83;;;15.90;99.90;;;;;;4996419;28;20456;-87
2022/09/08 06:29:28;;;;;;;270.30;262.70;;;15.90;99.90;;;;;;4990065;28;20236;-86
2022/09/08 06:32:00;;;;;;;269.40;261.90;;;16.00;99.90;;;;;;4985961;28;20459;-85
2022/09/08 06:34:30;;;;;;;256.70;249.20;;;16.20;99.90;;;;;;4991265;28;20529;-85
2022/09/08 06:37:07;;;;;;;279.60;271.80;;;16.10;99.90;;;;;;5026735;28;20474;-85
2022/09/08 06:39:41;;;;;;;281.07;273.27;;;16.40;99.90;;;;;;5026813;28;20525;-85
2022/09/08 06:42:14;;;;;;;277.87;270.17;;;15.90;99.90;;;;;;5026868;28;20442;-85
2022/09/08 06:44:45;;;;;;;257.53;250.30;;;16.20;99.90;;;;;;5026335;28;20463;-85
2022/09/08 06:47:15;;;;;;;268.97;261.47;;;16.20;99.90;;;;;;5026711;28;20475;-86
2022/09/08 06:49:42;;;;;;;266.30;258.80;;;16.20;99.90;;;;;;5026462;28;20461;-86
2022/09/08 06:52:18;;;;;;;262.87;255.50;;;15.90;99.90;;;;;;5026281;28;20454;-85
2022/09/08 06:54:52;;;;;;;269.10;261.60;;;16.10;99.90;;;;;;5025846;28;20463;-85
2022/09/08 06:57:31;;;;;;;272.57;264.97;;;15.90;99.90;;;;;;5025895;28;20507;-85
2022/09/08 07:00:07;;;;;;;271.60;264.00;;;15.90;99.90;;;;;;5025539;28;20462;-85
2022/09/08 07:02:59;;;;;;;275.90;268.20;;;15.90;99.90;;;;;;5025472;28;20458;-85
2022/09/08 07:05:50;;;;;;;295.07;286.90;;;16.20;99.90;;;;;;5025303;28;20443;-85
2022/09/08 07:08:39;;;;;;;318.77;310.00;;;15.80;99.90;;;;;;5024254;28;20518;-85
2022/09/08 07:11:14;;;;;;;336.60;327.37;;;15.80;99.90;;;;;;5024500;28;20461;-84
2022/09/08 07:13:53;;;;;;;351.60;342.00;;;15.80;99.90;;;;;;5025009;28;20445;-85
2022/09/08 07:16:27;;;;;;;374.43;364.13;;;15.70;99.90;;;;;;5004672;28;20489;-84
2022/09/08 07:19:00;;;;;;;384.63;374.10;;;15.70;99.90;;;;;;5003743;28;20488;-85
2022/09/08 07:21:36;;;;;;;392.40;381.60;;;15.70;99.90;;;;;;5004635;28;20456;-85
2022/09/08 07:24:05;;;;;;;385.73;375.13;;;15.70;99.90;;;;;;5008102;28;20453;-85
2022/09/08 07:26:37;;;;;;;365.87;355.97;;;15.70;99.90;;;;;;5025388;28;20883;-86
2022/09/08 07:29:12;;;;;;;356.33;346.63;;;15.80;99.90;;;;;;5026701;28;20485;-86
2022/09/08 07:31:45;;;;;;;368.90;358.90;;;15.70;99.90;;;;;;5026823;28;20443;-85
2022/09/08 07:34:18;;;;;;;352.23;342.63;;;16.00;99.90;;;;;;5027219;28;20455;-85
2022/09/08 07:36:50;;;;;;;319.37;310.67;;;15.90;99.90;;;;;;5026615;28;20925;-86
2022/09/08 07:39:21;;;;;;;330.07;321.07;;;16.20;99.90;;;;;;5026153;28;20562;-85
2022/09/08 07:41:54;;;;;;;340.73;331.43;;;16.10;99.90;;;;;;5027289;28;20523;-85
2022/09/08 07:44:21;;;;;;;346.93;337.53;;;16.60;99.90;;;;;;5026944;28;20492;-85
2022/09/08 07:47:03;;;;;;;358.97;349.23;;;16.50;99.90;;;;;;5025751;28;20463;-85
2022/09/08 07:49:39;;;;;;;394.70;384.00;;;16.60;99.90;;;;;;5024044;28;20939;-85
2022/09/08 07:52:16;;;;;;;420.67;409.20;;;16.70;99.90;;;;;;5025420;28;20467;-85
2022/09/08 07:55:03;;;;;;;427.07;415.27;;;16.50;99.90;;;;;;5025017;28;20535;-85
2022/09/08 07:57:41;;;;;;;428.87;417.03;;;16.40;99.90;;;;;;5023129;28;20496;-85
2022/09/08 08:00:13;;;;;;;440.67;428.40;;;16.60;99.90;;;;;;5025083;28;20460;-85
2022/09/08 08:03:08;;;;;;;469.67;456.47;;;16.50;99.90;;;;;;5024228;28;20456;-84
2022/09/08 08:05:41;;;;;;;486.87;473.00;;;16.60;99.90;;;;;;5025811;28;20830;-83
2022/09/08 08:08:17;;;;;;;516.73;501.83;;;16.40;99.90;;;;;;5026921;28;20487;-85
2022/09/08 08:10:55;;;;;;;632.70;613.00;;;16.40;99.90;;;;;;5027834;28;20534;-85
2022/09/08 08:13:46;;;;;;;645.03;624.83;;;16.60;99.90;;;;;;5029199;28;20199;-86
2022/09/08 08:16:17;;;;;;;666.50;645.03;;;16.80;99.90;;;;;;5029098;28;20461;-86
2022/09/08 08:18:53;;;;;;;664.20;642.93;;;16.90;99.90;;;;;;5029482;28;20533;-86
2022/09/08 08:21:25;;;;;;;661.53;640.37;;;16.80;99.90;;;;;;5029636;28;20493;-86
2022/09/08 08:24:02;;;;;;;674.90;652.83;;;17.00;99.90;;;;;;5029743;28;20525;-86
2022/09/08 08:26:36;;;;;;;689.50;666.63;;;17.10;99.90;;;;;;5029267;28;20453;-86
2022/09/08 08:29:30;;;;;;;668.87;647.20;;;17.20;99.90;;;;;;5028836;28;20458;-86
2022/09/08 08:32:03;;;;;;;671.23;649.23;;;17.20;99.90;;;;;;5028905;28;20861;-85
2022/09/08 08:34:32;;;;;;;684.63;661.43;;;17.20;99.90;;;;;;5028623;28;20433;-86
2022/09/08 08:37:03;;;;;;;708.63;681.23;;;17.60;99.90;;;;;;5029493;28;20463;-86
2022/09/08 08:39:33;;;;;;;739.03;709.07;;;17.80;99.90;;;;;;5029532;28;20464;-86
2022/09/08 08:42:16;;;;;;;639.63;615.13;;;18.00;99.90;;;;;;5030851;28;20456;-86
2022/09/08 08:44:57;;;;;;;561.23;539.77;;;18.20;99.90;;;;;;5030201;28;20456;-87
2022/09/08 08:47:52;;;;;;;637.37;611.10;;;18.20;99.90;;;;;;5030938;28;20543;-86
2022/09/08 08:50:41;;;;;;;546.83;525.73;;;19.10;99.90;;;;;;5032004;28;20442;-87
2022/09/08 08:53:45;;;;;;;563.00;541.13;;;18.90;99.90;;;;;;5031911;28;20520;-87
2022/09/08 08:56:20;;;;;;;477.80;461.43;;;18.90;99.90;;;;;;5031683;28;20455;-88
2022/09/08 08:59:00;;;;;;;413.00;393.23;;;18.60;99.90;;;;;;5031824;28;20483;-88
2022/09/08 09:01:46;;;;;;;375.77;364.93;;;18.40;99.90;;;;;;5035821;28;20509;-88
2022/09/08 09:04:33;;;;;;;189.90;184.20;;;18.50;99.90;;;;;;5035739;28;20458;-86
2022/09/08 09:07:57;;;;;;;162.57;157.50;;;18.00;99.90;;;;;;5035477;28;20479;-88
2022/09/08 09:10:54;;;;;;;146.53;141.93;;;18.20;99.90;;;;;;4994632;28;20537;-87
2022/09/08 09:13:42;;;;;;;136.90;132.50;;;18.40;99.90;;;;;;4995182;28;20548;-88
2022/09/08 09:16:33;;;;;;;118.43;114.53;;;18.60;99.90;;;;;;5027487;28;20514;-87
2022/09/08 09:19:37;;;;;;;128.37;124.27;;;18.40;99.90;;;;;;5035933;28;20465;-87
2022/09/08 09:22:14;;;;;;;97.67;94.47;;;18.50;99.90;;;;;;5035178;28;20444;-88
2022/09/08 09:24:58;;;;;;;92.40;89.33;;;18.40;99.90;;;;;;5034878;28;20465;-86
2022/09/08 09:27:39;;;;;;;82.57;79.70;;;18.80;99.90;;;;;;5034919;28;20793;-86
2022/09/08 09:30:20;;;;;;;79.77;77.07;;;19.00;99.90;;;;;;5035066;28;20518;-86
2022/09/08 09:33:07;;;;;;;46.60;44.90;;;19.00;99.90;;;;;;5035524;28;20949;-88
2022/09/08 09:36:09;;;;;;;82.63;79.83;;;19.20;99.90;;;;;;5034839;28;20460;-89
2022/09/08 09:39:05;;;;;;;38.57;37.07;;;20.00;99.80;;;;;;5034902;28;20480;-87
2022/09/08 09:41:51;;;;;;;26.23;25.13;;;20.40;99.90;;;;;;5034868;28;20451;-87
2022/09/08 09:44:36;;;;;;;15.77;14.97;;;20.40;97.80;;;;;;5034496;28;20518;-87
2022/09/08 09:47:18;;;;;;;6.87;6.37;;;20.10;94.80;;;;;;5033942;28;20464;-86
2022/09/08 09:50:15;;;;;;;4.20;3.80;;;20.20;93.90;;;;;;5033700;28;20454;-87
2022/09/08 09:52:52;;;;;;;3.60;2.77;;;20.80;94.30;;;;;;5033559;28;20486;-87
2022/09/08 09:55:41;;;;;;;3.40;2.10;;;20.80;90.20;;;;;;5033018;28;20465;-87
2022/09/08 09:58:47;;;;;;;3.20;1.40;;;20.80;90.00;;;;;;5032474;28;20488;-86
2022/09/08 10:01:40;;;;;;;3.00;1.10;;;20.60;86.60;;;;;;5031781;28;20464;-87
2022/09/08 10:04:41;;;;;;;3.00;1.00;;;20.80;86.80;;;;;;5031283;28;20450;-87
2022/09/08 10:07:40;;;;;;;3.07;0.87;;;20.80;86.80;;;;;;5030745;28;20482;-87
2022/09/08 10:10:27;;;;;;;3.00;0.90;;;20.80;84.70;;;;;;5015518;28;20459;-87
2022/09/08 10:13:30;;;;;;;3.00;0.70;;;20.50;86.50;;;;;;5030369;28;20437;-87
2022/09/08 10:16:33;;;;;;;3.00;0.70;;;20.20;86.30;;;;;;5028265;28;20461;-86
2022/09/08 10:19:39;;;;;;;3.00;0.60;;;20.20;86.30;;;;;;5031031;28;20464;-87
2022/09/08 10:22:56;;;;;;;3.00;0.70;;;20.90;83.60;;;;;;5030831;28;20468;-87
2022/09/08 10:25:54;;;;;;;3.00;0.60;;;22.10;80.10;;;;;;5015037;28;20466;-87
2022/09/08 10:28:49;;;;;;;7.83;2.20;;;23.10;78.50;;;;;;5030792;28;20469;-86
2022/09/08 10:31:49;;;;;;;3.00;0.60;;;23.60;68.30;;;;;;5030328;28;20449;-87
2022/09/08 10:34:39;;;;;;;3.00;0.60;;;22.60;66.00;;;;;;5030826;28;20487;-88
2022/09/08 10:37:17;;;;;;;3.07;0.60;;;21.90;69.60;;;;;;5029786;28;20481;-86
2022/09/08 10:40:00;;;;;;;3.10;0.60;;;22.30;72.20;;;;;;5031125;28;20452;-87
2022/09/08 10:42:44;;;;;;;3.00;0.60;;;22.50;72.30;;;;;;5030079;28;20455;-87
2022/09/08 10:45:21;;;;;;;3.10;0.60;;;23.00;70.00;;;;;;5028583;28;20456;-87
2022/09/08 10:48:20;;;;;;;3.10;0.60;;;23.00;64.60;;;;;;5029563;28;20477;-87
2022/09/08 10:50:51;;;;;;;3.07;0.60;;;23.70;64.60;;;;;;4996557;28;20463;-86
2022/09/08 10:54:01;;;;;;;3.07;0.60;;;23.20;59.00;;;;;;5029288;28;20452;-86
2022/09/08 10:56:30;;;;;;;3.10;0.50;;;22.90;60.30;;;;;;5013855;28;20908;-87
2022/09/08 10:59:52;;;;;;;3.10;0.60;;;23.60;61.30;;;;;;5030526;28;20472;-87
2022/09/08 11:02:31;;;;;;;3.20;0.63;;;24.70;57.50;;;;;;5030602;28;20461;-87
2022/09/08 11:05:41;;;;;;;3.20;0.60;;;24.60;53.40;;;;;;5030950;28;20484;-87
2022/09/08 11:08:46;;;;;;;3.13;0.50;;;24.70;52.70;;;;;;5027023;28;20546;-86
2022/09/08 11:11:36;;;;;;;3.20;0.50;;;24.50;53.20;;;;;;5014977;28;20438;-85
2022/09/08 11:14:15;;;;;;;3.27;0.60;;;24.70;50.90;;;;;;5020917;28;20480;-85
2022/09/08 11:17:02;;;;;;;3.20;0.60;;;24.40;48.50;;;;;;5020912;28;20449;-84
2022/09/08 11:19:40;;;;;;;3.30;0.70;;;24.50;49.40;;;;;;5020196;28;20459;-84
2022/09/08 11:22:35;;;;;;;3.20;0.50;;;24.40;50.50;;;;;;5020544;28;21019;-85
2022/09/08 11:25:25;;;;;;;3.20;0.50;;;24.70;49.90;;;;;;5018983;28;20481;-85
2022/09/08 11:28:05;;;;;;;3.27;0.50;;;24.00;45.80;;;;;;5019324;28;21012;-85
2022/09/08 11:30:37;;;;;;;3.30;0.60;;;23.10;49.70;;;;;;5020824;28;20839;-85
2022/09/08 11:33:17;;;;;;;3.30;0.60;;;22.70;53.40;;;;;;5019443;28;20471;-84
2022/09/08 11:36:02;;;;;;;3.33;0.60;;;22.40;54.40;;;;;;5019304;28;20456;-85
2022/09/08 11:38:38;;;;;;;3.30;0.60;;;22.90;54.50;;;;;;5019119;28;20490;-84
2022/09/08 11:41:33;;;;;;;3.30;0.60;;;22.70;51.20;;;;;;5020023;28;20547;-84
2022/09/08 11:44:29;;;;;;;3.30;0.60;;;22.60;50.90;;;;;;5017852;28;20464;-83
2022/09/08 11:47:11;;;;;;;3.30;0.50;;;22.90;55.90;;;;;;5020247;28;20444;-85
2022/09/08 11:50:08;;;;;;;3.33;0.60;;;22.80;51.10;;;;;;5019947;28;20461;-85
2022/09/08 11:52:50;;;;;;;3.30;0.57;;;22.70;49.80;;;;;;5007215;28;20485;-84
2022/09/08 11:55:27;;;;;;;3.40;0.60;;;23.80;47.90;;;;;;5020206;28;20980;-85
2022/09/08 11:58:12;;;;;;;3.30;0.50;;;24.20;43.40;;;;;;5017662;28;20492;-86
2022/09/08 12:01:00;;;;;;;3.40;0.70;;;25.00;42.90;;;;;;5014373;28;20460;-87
2022/09/08 12:04:06;;;;;;;3.30;0.50;;;26.50;37.80;;;;;;5009448;28;20463;-87
2022/09/08 12:06:53;;;;;;;3.33;0.50;;;27.50;28.00;;;;;;4974348;28;20454;-86
2022/09/08 12:09:47;;;;;;;3.30;0.50;;;27.80;25.70;;;;;;4969167;28;20462;-86
2022/09/08 12:12:34;;;;;;;3.30;0.50;;;27.90;25.00;;;;;;4973884;28;20454;-87
2022/09/08 12:15:16;;;;;;;3.30;0.50;;;27.60;21.60;;;;;;4969519;28;20955;-87
2022/09/08 12:18:00;;;;;;;3.30;0.50;;;27.60;21.20;;;;;;4981472;28;20490;-83
2022/09/08 12:20:42;;;;;;;3.30;0.50;;;27.30;20.10;;;;;;4981449;28;20439;-83
2022/09/08 12:23:25;;;;;;;3.33;0.50;;;27.10;20.90;;;;;;4979691;28;20450;-84
2022/09/08 12:26:15;;;;;;;3.30;0.50;;;26.90;22.20;;;;;;4980563;28;20454;-83
2022/09/08 12:28:56;;;;;;;3.37;0.50;;;27.50;19.70;;;;;;4979412;28;20467;-83
2022/09/08 12:31:41;;;;;;;3.40;0.50;;;27.20;20.30;;;;;;4981018;28;20443;-83
2022/09/08 12:34:31;;;;;;;3.40;0.50;;;26.40;23.30;;;;;;4979373;28;20819;-83
2022/09/08 12:37:07;;;;;;;3.43;0.50;;;24.60;21.30;;;;;;4979343;28;20444;-83
2022/09/08 12:40:11;;;;;;;3.43;0.57;;;23.90;26.90;;;;;;4980234;28;20451;-84
2022/09/08 12:42:56;;;;;;;3.50;0.50;;;23.80;29.80;;;;;;4976405;28;20446;-88
2022/09/08 12:45:38;;;;;;;3.70;0.60;;;23.50;27.80;;;;;;4975275;28;20461;-87
2022/09/08 12:48:17;;;;;;;3.50;0.60;;;24.40;24.40;;;;;;4974859;28;20211;-88
2022/09/08 12:50:54;;;;;;;3.40;0.50;;;25.90;21.70;;;;;;4974982;28;20458;-89
2022/09/08 12:54:12;;;;;;;3.43;0.50;;;26.70;18.30;;;;;;4977946;28;20465;-85
2022/09/08 12:56:53;;;;;;;3.43;0.50;;;26.10;18.00;;;;;;4979290;28;20502;-84
2022/09/08 12:59:43;;;;;;;3.50;0.50;;;25.30;21.20;;;;;;4978919;28;20459;-83
2022/09/08 13:02:30;;;;;;;3.50;0.60;;;24.70;20.40;;;;;;4978193;28;20510;-85
2022/09/08 13:05:12;;;;;;;3.40;0.50;;;25.60;20.30;;;;;;4977735;28;20458;-84
2022/09/08 13:07:48;;;;;;;3.50;0.50;;;25.50;17.60;;;;;;4977353;28;20499;-84
2022/09/08 13:10:22;;;;;;;3.50;0.50;;;26.20;16.40;;;;;;4978421;28;20754;-85